Poneto, Indiana
Current Conditions -  °F | °C
As of 9:15 PM on Thursday 20 Nov 2014 (Local Time) from KHHG Reporting Station
Clear Clear  
Wind Chill: 13°   Ceiling: Unl
Heat Index: 21°   Visibility: 10mi
Dew Point:   Wind: 6mph
Humidity: 60%   Direction: 280°W
Pressure: 30.17"   Gusts: NA
Location:  40.66°N, 85.22°W
Report Text: KHHG 210215Z AUTO 28005KT 10SM CLR M06/M13 A3017 RMK AO2 T10621128
Loading
Personal Weather Stations






























Interactive Weather Map New forecast layout! Learn more

10-Day Weather Forecast

Advertisements
Track Severe Weather on mobile